NTAA/PPT METAR and TAF weather

Enter ICAO airport designator
Station Type Date Time Source
NTAA METAR 2019/02/22 23:00 UTC NOAA

NTAA 222300Z 05020KT 9999 FEW023 BKN260 31/25 Q1010 TEMPO 02020G30KT 2000 SHRA SCT016 BKN040


Station Type Date Time Source
NTAA Decoded METAR 2019/02/22 23:00 UTC NOAA

Tahiti-Faaa, French Polynesia (NTAA) 17-33S 149-37W 2M
Feb 22, 2019 - 06:00 PM EST / 2019.02.22 2300 UTC
Wind: from the NE (050 degrees) at 23 MPH (20 KT):0
Visibility: greater than 7 mile(s):0
Sky conditions: mostly cloudy
Temperature: 87 F (31 C)
Heat index: 97.5 F (36.4 C):1
Dew Point: 77 F (25 C)
Relative Humidity: 70%
Pressure (altimeter): 29.83 in. Hg (1010 hPa)
ob: NTAA 222300Z 05020KT 9999 FEW023 BKN260 31/25 Q1010 TEMPO 02020G30KT 2000 SHRA SCT016 BKN040
cycle: 23

Station Type Date Time Source
NTAA TAF 2019/02/22 18:08 UTC NOAA

TAF NTAA 221700Z 2218/2324 02020KT 9999 SCT018 BKN050
TEMPO 2218/2303 02020G30KT 2000 SHRA FEW010 BKN014 BKN035
BECMG 2303/2305 FEW023


Example: see airport list